sensor_id;sensor_type;location;lat;lon;timestamp;P1;durP1;ratioP1;P2;durP2;ratioP2
13014;SDS011;6573;57.696;11.950;2023-01-16T00:02:11;14.60;;;2.37;;
13014;SDS011;6573;57.696;11.950;2023-01-16T00:04:40;11.67;;;1.90;;
13014;SDS011;6573;57.696;11.950;2023-01-16T00:07:08;12.87;;;2.10;;
13014;SDS011;6573;57.696;11.950;2023-01-16T00:09:38;11.70;;;2.63;;
13014;SDS011;6573;57.696;11.950;2023-01-16T00:12:07;16.40;;;2.93;;
13014;SDS011;6573;57.696;11.950;2023-01-16T00:14:36;19.53;;;3.47;;
13014;SDS011;6573;57.696;11.950;2023-01-16T00:17:04;19.87;;;3.83;;
13014;SDS011;6573;57.696;11.950;2023-01-16T00:19:34;20.67;;;3.97;;
13014;SDS011;6573;57.696;11.950;2023-01-16T00:22:02;15.27;;;3.10;;
13014;SDS011;6573;57.696;11.950;2023-01-16T00:24:31;15.27;;;2.87;;
13014;SDS011;6573;57.696;11.950;2023-01-16T00:27:01;16.00;;;2.70;;
13014;SDS011;6573;57.696;11.950;2023-01-16T00:29:30;17.93;;;2.93;;
13014;SDS011;6573;57.696;11.950;2023-01-16T00:31:58;15.00;;;2.93;;
13014;SDS011;6573;57.696;11.950;2023-01-16T00:34:27;11.57;;;2.40;;
13014;SDS011;6573;57.696;11.950;2023-01-16T00:36:55;13.67;;;3.00;;
13014;SDS011;6573;57.696;11.950;2023-01-16T00:39:24;16.00;;;2.53;;
13014;SDS011;6573;57.696;11.950;2023-01-16T00:41:52;16.97;;;2.77;;
13014;SDS011;6573;57.696;11.950;2023-01-16T00:44:22;18.70;;;2.87;;
13014;SDS011;6573;57.696;11.950;2023-01-16T00:46:51;17.10;;;2.77;;
13014;SDS011;6573;57.696;11.950;2023-01-16T00:49:19;13.33;;;2.30;;
13014;SDS011;6573;57.696;11.950;2023-01-16T00:51:47;17.43;;;2.47;;
13014;SDS011;6573;57.696;11.950;2023-01-16T00:54:16;15.13;;;2.60;;
13014;SDS011;6573;57.696;11.950;2023-01-16T00:56:44;10.93;;;2.20;;
13014;SDS011;6573;57.696;11.950;2023-01-16T00:59:13;17.20;;;2.50;;
13014;SDS011;6573;57.696;11.950;2023-01-16T01:01:43;13.67;;;2.90;;
13014;SDS011;6573;57.696;11.950;2023-01-16T01:04:11;12.87;;;2.97;;
13014;SDS011;6573;57.696;11.950;2023-01-16T01:06:40;13.23;;;2.60;;
13014;SDS011;6573;57.696;11.950;2023-01-16T01:09:08;16.13;;;2.60;;
13014;SDS011;6573;57.696;11.950;2023-01-16T01:11:37;15.30;;;2.50;;
13014;SDS011;6573;57.696;11.950;2023-01-16T01:14:05;15.03;;;2.63;;
13014;SDS011;6573;57.696;11.950;2023-01-16T01:16:33;13.23;;;2.60;;
13014;SDS011;6573;57.696;11.950;2023-01-16T01:19:03;13.07;;;2.40;;
13014;SDS011;6573;57.696;11.950;2023-01-16T01:21:32;13.80;;;2.97;;
13014;SDS011;6573;57.696;11.950;2023-01-16T01:24:01;11.30;;;2.37;;
13014;SDS011;6573;57.696;11.950;2023-01-16T01:26:29;11.60;;;2.70;;
13014;SDS011;6573;57.696;11.950;2023-01-16T01:28:57;12.47;;;2.50;;
13014;SDS011;6573;57.696;11.950;2023-01-16T01:31:26;14.90;;;2.73;;
13014;SDS011;6573;57.696;11.950;2023-01-16T01:33:54;20.13;;;2.70;;
13014;SDS011;6573;57.696;11.950;2023-01-16T01:36:24;11.90;;;2.60;;
13014;SDS011;6573;57.696;11.950;2023-01-16T01:38:52;12.80;;;2.43;;
13014;SDS011;6573;57.696;11.950;2023-01-16T01:41:20;8.90;;;2.13;;
13014;SDS011;6573;57.696;11.950;2023-01-16T01:43:50;13.67;;;2.40;;
13014;SDS011;6573;57.696;11.950;2023-01-16T01:46:21;14.53;;;2.27;;
13014;SDS011;6573;57.696;11.950;2023-01-16T01:48:55;9.80;;;2.20;;
13014;SDS011;6573;57.696;11.950;2023-01-16T01:51:30;12.37;;;2.60;;
13014;SDS011;6573;57.696;11.950;2023-01-16T01:54:03;11.67;;;1.93;;
13014;SDS011;6573;57.696;11.950;2023-01-16T01:56:34;13.87;;;2.47;;
13014;SDS011;6573;57.696;11.950;2023-01-16T01:59:10;12.97;;;2.53;;
13014;SDS011;6573;57.696;11.950;2023-01-16T02:01:42;16.60;;;2.90;;
13014;SDS011;6573;57.696;11.950;2023-01-16T02:04:17;15.80;;;2.73;;
13014;SDS011;6573;57.696;11.950;2023-01-16T02:06:51;16.10;;;3.00;;
13014;SDS011;6573;57.696;11.950;2023-01-16T02:09:22;21.33;;;3.07;;
13014;SDS011;6573;57.696;11.950;2023-01-16T02:11:53;11.80;;;2.67;;
13014;SDS011;6573;57.696;11.950;2023-01-16T02:14:23;14.63;;;2.63;;
13014;SDS011;6573;57.696;11.950;2023-01-16T02:16:56;11.37;;;2.47;;
13014;SDS011;6573;57.696;11.950;2023-01-16T02:19:48;13.07;;;2.27;;
13014;SDS011;6573;57.696;11.950;2023-01-16T02:28:51;12.20;;;2.50;;
13014;SDS011;6573;57.696;11.950;2023-01-16T02:31:48;15.63;;;2.80;;
13014;SDS011;6573;57.696;11.950;2023-01-16T02:34:24;17.90;;;2.60;;
13014;SDS011;6573;57.696;11.950;2023-01-16T02:37:10;16.20;;;3.13;;
13014;SDS011;6573;57.696;11.950;2023-01-16T02:39:50;18.77;;;3.37;;
13014;SDS011;6573;57.696;11.950;2023-01-16T02:42:26;17.50;;;3.57;;
13014;SDS011;6573;57.696;11.950;2023-01-16T02:45:02;16.20;;;3.13;;
13014;SDS011;6573;57.696;11.950;2023-01-16T02:47:39;19.93;;;2.70;;
13014;SDS011;6573;57.696;11.950;2023-01-16T02:50:15;12.17;;;2.70;;
13014;SDS011;6573;57.696;11.950;2023-01-16T02:52:51;17.10;;;3.20;;
13014;SDS011;6573;57.696;11.950;2023-01-16T02:55:26;18.17;;;3.63;;
13014;SDS011;6573;57.696;11.950;2023-01-16T02:58:00;19.37;;;3.60;;
13014;SDS011;6573;57.696;11.950;2023-01-16T03:00:32;18.43;;;4.17;;
13014;SDS011;6573;57.696;11.950;2023-01-16T03:03:03;19.60;;;3.93;;
13014;SDS011;6573;57.696;11.950;2023-01-16T03:05:39;24.50;;;4.40;;
13014;SDS011;6573;57.696;11.950;2023-01-16T03:08:20;20.80;;;3.60;;
13014;SDS011;6573;57.696;11.950;2023-01-16T03:11:11;23.73;;;4.03;;
13014;SDS011;6573;57.696;11.950;2023-01-16T03:13:58;23.93;;;4.00;;
13014;SDS011;6573;57.696;11.950;2023-01-16T03:16:41;18.47;;;3.47;;
13014;SDS011;6573;57.696;11.950;2023-01-16T03:19:26;22.17;;;4.00;;
13014;SDS011;6573;57.696;11.950;2023-01-16T03:22:06;23.00;;;4.00;;
13014;SDS011;6573;57.696;11.950;2023-01-16T03:24:46;28.47;;;4.27;;
13014;SDS011;6573;57.696;11.950;2023-01-16T03:27:29;27.73;;;4.50;;
13014;SDS011;6573;57.696;11.950;2023-01-16T03:30:09;29.00;;;4.70;;
13014;SDS011;6573;57.696;11.950;2023-01-16T03:32:42;23.83;;;3.83;;
13014;SDS011;6573;57.696;11.950;2023-01-16T03:35:16;19.77;;;3.60;;
13014;SDS011;6573;57.696;11.950;2023-01-16T03:37:51;26.37;;;4.53;;
13014;SDS011;6573;57.696;11.950;2023-01-16T03:40:24;23.80;;;4.43;;
13014;SDS011;6573;57.696;11.950;2023-01-16T03:42:56;27.80;;;4.87;;
13014;SDS011;6573;57.696;11.950;2023-01-16T03:45:29;22.93;;;4.13;;
13014;SDS011;6573;57.696;11.950;2023-01-16T03:48:02;24.73;;;3.83;;
13014;SDS011;6573;57.696;11.950;2023-01-16T03:50:36;28.73;;;4.60;;
13014;SDS011;6573;57.696;11.950;2023-01-16T03:53:06;22.50;;;4.60;;
13014;SDS011;6573;57.696;11.950;2023-01-16T03:55:39;26.60;;;4.50;;
13014;SDS011;6573;57.696;11.950;2023-01-16T03:58:16;21.80;;;4.00;;
13014;SDS011;6573;57.696;11.950;2023-01-16T04:00:51;23.20;;;4.50;;
13014;SDS011;6573;57.696;11.950;2023-01-16T04:03:27;26.37;;;4.40;;
13014;SDS011;6573;57.696;11.950;2023-01-16T04:06:03;24.27;;;4.13;;
13014;SDS011;6573;57.696;11.950;2023-01-16T04:08:37;28.67;;;4.50;;
13014;SDS011;6573;57.696;11.950;2023-01-16T04:11:08;30.07;;;5.20;;
13014;SDS011;6573;57.696;11.950;2023-01-16T04:13:38;23.97;;;4.33;;
13014;SDS011;6573;57.696;11.950;2023-01-16T04:16:13;29.17;;;5.03;;
13014;SDS011;6573;57.696;11.950;2023-01-16T04:18:44;22.37;;;3.70;;
13014;SDS011;6573;57.696;11.950;2023-01-16T04:21:16;21.53;;;4.10;;
13014;SDS011;6573;57.696;11.950;2023-01-16T04:23:44;25.70;;;3.93;;
13014;SDS011;6573;57.696;11.950;2023-01-16T04:26:13;23.50;;;3.90;;
13014;SDS011;6573;57.696;11.950;2023-01-16T04:28:42;27.23;;;4.60;;
13014;SDS011;6573;57.696;11.950;2023-01-16T04:31:11;28.00;;;4.00;;
13014;SDS011;6573;57.696;11.950;2023-01-16T04:33:42;21.73;;;4.03;;
13014;SDS011;6573;57.696;11.950;2023-01-16T04:36:10;28.47;;;4.70;;
13014;SDS011;6573;57.696;11.950;2023-01-16T04:38:40;23.77;;;4.43;;
13014;SDS011;6573;57.696;11.950;2023-01-16T04:41:08;22.50;;;4.17;;
13014;SDS011;6573;57.696;11.950;2023-01-16T04:43:37;24.33;;;4.37;;
13014;SDS011;6573;57.696;11.950;2023-01-16T04:46:05;27.23;;;4.77;;
13014;SDS011;6573;57.696;11.950;2023-01-16T04:48:33;28.70;;;5.37;;
13014;SDS011;6573;57.696;11.950;2023-01-16T04:51:02;22.97;;;4.27;;
13014;SDS011;6573;57.696;11.950;2023-01-16T04:53:30;32.60;;;5.23;;
13014;SDS011;6573;57.696;11.950;2023-01-16T04:56:00;29.23;;;4.87;;
13014;SDS011;6573;57.696;11.950;2023-01-16T04:58:29;19.33;;;4.03;;
13014;SDS011;6573;57.696;11.950;2023-01-16T05:00:57;25.33;;;4.10;;
13014;SDS011;6573;57.696;11.950;2023-01-16T05:03:26;25.00;;;4.50;;
13014;SDS011;6573;57.696;11.950;2023-01-16T05:05:54;22.63;;;3.87;;
13014;SDS011;6573;57.696;11.950;2023-01-16T05:08:23;20.43;;;3.93;;
13014;SDS011;6573;57.696;11.950;2023-01-16T05:10:54;24.43;;;4.43;;
13014;SDS011;6573;57.696;11.950;2023-01-16T05:13:24;27.20;;;4.23;;
13014;SDS011;6573;57.696;11.950;2023-01-16T05:15:52;22.50;;;3.80;;
13014;SDS011;6573;57.696;11.950;2023-01-16T05:18:21;24.43;;;4.60;;
13014;SDS011;6573;57.696;11.950;2023-01-16T05:20:49;23.23;;;3.83;;
13014;SDS011;6573;57.696;11.950;2023-01-16T05:23:18;24.53;;;4.00;;
13014;SDS011;6573;57.696;11.950;2023-01-16T05:25:46;19.10;;;3.50;;
13014;SDS011;6573;57.696;11.950;2023-01-16T05:28:15;26.17;;;4.47;;
13014;SDS011;6573;57.696;11.950;2023-01-16T05:30:46;21.83;;;3.93;;
13014;SDS011;6573;57.696;11.950;2023-01-16T05:33:15;32.73;;;4.57;;
13014;SDS011;6573;57.696;11.950;2023-01-16T05:35:46;20.53;;;4.13;;
13014;SDS011;6573;57.696;11.950;2023-01-16T05:38:15;25.27;;;4.37;;
13014;SDS011;6573;57.696;11.950;2023-01-16T05:40:43;27.67;;;4.60;;
13014;SDS011;6573;57.696;11.950;2023-01-16T05:43:12;25.53;;;4.00;;
13014;SDS011;6573;57.696;11.950;2023-01-16T05:45:41;19.77;;;3.93;;
13014;SDS011;6573;57.696;11.950;2023-01-16T05:48:11;23.23;;;3.90;;
13014;SDS011;6573;57.696;11.950;2023-01-16T05:50:40;28.23;;;4.17;;
13014;SDS011;6573;57.696;11.950;2023-01-16T05:53:08;23.37;;;4.03;;
13014;SDS011;6573;57.696;11.950;2023-01-16T05:55:39;27.13;;;4.30;;
13014;SDS011;6573;57.696;11.950;2023-01-16T05:58:10;22.80;;;4.17;;
13014;SDS011;6573;57.696;11.950;2023-01-16T06:00:39;23.97;;;4.20;;
13014;SDS011;6573;57.696;11.950;2023-01-16T06:03:08;19.67;;;4.03;;
13014;SDS011;6573;57.696;11.950;2023-01-16T06:05:38;24.27;;;4.10;;
13014;SDS011;6573;57.696;11.950;2023-01-16T06:08:07;20.10;;;3.83;;
13014;SDS011;6573;57.696;11.950;2023-01-16T06:10:36;29.87;;;4.60;;
13014;SDS011;6573;57.696;11.950;2023-01-16T06:13:04;20.60;;;3.90;;
13014;SDS011;6573;57.696;11.950;2023-01-16T06:15:32;21.37;;;4.00;;
13014;SDS011;6573;57.696;11.950;2023-01-16T06:18:01;23.30;;;3.97;;
13014;SDS011;6573;57.696;11.950;2023-01-16T06:20:31;17.60;;;3.73;;
13014;SDS011;6573;57.696;11.950;2023-01-16T06:22:59;20.43;;;3.37;;
13014;SDS011;6573;57.696;11.950;2023-01-16T06:25:27;26.10;;;3.70;;
13014;SDS011;6573;57.696;11.950;2023-01-16T06:27:55;20.77;;;3.33;;
13014;SDS011;6573;57.696;11.950;2023-01-16T06:30:26;24.00;;;3.70;;
13014;SDS011;6573;57.696;11.950;2023-01-16T06:32:54;20.90;;;4.17;;
13014;SDS011;6573;57.696;11.950;2023-01-16T06:35:23;23.00;;;4.10;;
13014;SDS011;6573;57.696;11.950;2023-01-16T06:37:53;25.67;;;3.97;;
13014;SDS011;6573;57.696;11.950;2023-01-16T06:40:21;21.40;;;3.90;;
13014;SDS011;6573;57.696;11.950;2023-01-16T06:42:49;23.73;;;3.73;;
13014;SDS011;6573;57.696;11.950;2023-01-16T06:45:18;26.43;;;3.50;;
13014;SDS011;6573;57.696;11.950;2023-01-16T06:47:50;21.10;;;4.00;;
13014;SDS011;6573;57.696;11.950;2023-01-16T06:50:19;18.70;;;3.23;;
13014;SDS011;6573;57.696;11.950;2023-01-16T06:52:47;17.13;;;3.20;;
13014;SDS011;6573;57.696;11.950;2023-01-16T06:55:17;21.77;;;3.80;;
13014;SDS011;6573;57.696;11.950;2023-01-16T06:57:46;22.20;;;3.37;;
13014;SDS011;6573;57.696;11.950;2023-01-16T07:00:15;21.23;;;3.37;;
13014;SDS011;6573;57.696;11.950;2023-01-16T07:02:47;17.07;;;3.23;;
13014;SDS011;6573;57.696;11.950;2023-01-16T07:05:21;22.97;;;3.40;;
13014;SDS011;6573;57.696;11.950;2023-01-16T07:07:50;16.37;;;3.30;;
13014;SDS011;6573;57.696;11.950;2023-01-16T07:10:20;19.50;;;3.60;;
13014;SDS011;6573;57.696;11.950;2023-01-16T07:12:48;19.67;;;3.40;;
13014;SDS011;6573;57.696;11.950;2023-01-16T07:15:18;20.97;;;3.40;;
13014;SDS011;6573;57.696;11.950;2023-01-16T07:18:04;20.80;;;3.43;;
13014;SDS011;6573;57.696;11.950;2023-01-16T07:20:51;16.67;;;3.20;;
13014;SDS011;6573;57.696;11.950;2023-01-16T07:23:39;20.40;;;3.20;;
13014;SDS011;6573;57.696;11.950;2023-01-16T07:26:15;19.43;;;3.50;;
13014;SDS011;6573;57.696;11.950;2023-01-16T07:28:46;21.07;;;3.77;;
13014;SDS011;6573;57.696;11.950;2023-01-16T07:31:17;12.30;;;2.40;;
13014;SDS011;6573;57.696;11.950;2023-01-16T07:33:45;16.83;;;3.07;;
13014;SDS011;6573;57.696;11.950;2023-01-16T07:36:13;17.70;;;2.70;;
13014;SDS011;6573;57.696;11.950;2023-01-16T07:38:45;12.00;;;2.50;;
13014;SDS011;6573;57.696;11.950;2023-01-16T07:41:15;17.13;;;3.17;;
13014;SDS011;6573;57.696;11.950;2023-01-16T07:43:43;22.20;;;3.40;;
13014;SDS011;6573;57.696;11.950;2023-01-16T07:46:12;15.60;;;3.13;;
13014;SDS011;6573;57.696;11.950;2023-01-16T07:48:41;18.20;;;2.87;;
13014;SDS011;6573;57.696;11.950;2023-01-16T07:51:10;12.23;;;2.73;;
13014;SDS011;6573;57.696;11.950;2023-01-16T07:53:38;18.87;;;2.70;;
13014;SDS011;6573;57.696;11.950;2023-01-16T07:56:06;15.10;;;2.63;;
13014;SDS011;6573;57.696;11.950;2023-01-16T07:58:36;19.40;;;2.93;;
13014;SDS011;6573;57.696;11.950;2023-01-16T08:01:08;13.77;;;2.23;;
13014;SDS011;6573;57.696;11.950;2023-01-16T08:03:37;11.33;;;1.90;;
13014;SDS011;6573;57.696;11.950;2023-01-16T08:06:06;10.90;;;2.60;;
13014;SDS011;6573;57.696;11.950;2023-01-16T08:08:35;15.63;;;2.33;;
13014;SDS011;6573;57.696;11.950;2023-01-16T08:11:03;12.30;;;2.50;;
13014;SDS011;6573;57.696;11.950;2023-01-16T08:13:54;14.27;;;2.40;;
13014;SDS011;6573;57.696;11.950;2023-01-16T08:16:22;11.40;;;2.10;;
13014;SDS011;6573;57.696;11.950;2023-01-16T08:18:51;12.50;;;2.00;;
13014;SDS011;6573;57.696;11.950;2023-01-16T08:21:19;13.90;;;2.63;;
13014;SDS011;6573;57.696;11.950;2023-01-16T08:23:48;16.00;;;2.90;;
13014;SDS011;6573;57.696;11.950;2023-01-16T08:26:16;9.67;;;2.20;;
13014;SDS011;6573;57.696;11.950;2023-01-16T08:28:44;13.47;;;2.33;;
13014;SDS011;6573;57.696;11.950;2023-01-16T08:31:14;18.40;;;2.90;;
13014;SDS011;6573;57.696;11.950;2023-01-16T08:33:44;16.27;;;2.67;;
13014;SDS011;6573;57.696;11.950;2023-01-16T08:36:13;18.57;;;3.03;;
13014;SDS011;6573;57.696;11.950;2023-01-16T08:38:47;21.40;;;2.77;;
13014;SDS011;6573;57.696;11.950;2023-01-16T08:41:15;16.73;;;3.47;;
13014;SDS011;6573;57.696;11.950;2023-01-16T08:44:02;15.73;;;3.10;;
13014;SDS011;6573;57.696;11.950;2023-01-16T08:46:50;19.07;;;3.20;;
13014;SDS011;6573;57.696;11.950;2023-01-16T08:49:41;16.43;;;3.27;;
13014;SDS011;6573;57.696;11.950;2023-01-16T08:52:27;19.87;;;3.27;;
13014;SDS011;6573;57.696;11.950;2023-01-16T08:54:57;16.33;;;3.13;;
13014;SDS011;6573;57.696;11.950;2023-01-16T08:57:26;14.80;;;2.90;;
13014;SDS011;6573;57.696;11.950;2023-01-16T08:59:55;17.43;;;2.70;;
13014;SDS011;6573;57.696;11.950;2023-01-16T09:02:25;14.27;;;2.77;;
13014;SDS011;6573;57.696;11.950;2023-01-16T09:04:55;17.40;;;2.77;;
13014;SDS011;6573;57.696;11.950;2023-01-16T09:07:23;15.30;;;2.93;;
13014;SDS011;6573;57.696;11.950;2023-01-16T09:09:52;17.43;;;3.07;;
13014;SDS011;6573;57.696;11.950;2023-01-16T09:12:20;23.47;;;3.83;;
13014;SDS011;6573;57.696;11.950;2023-01-16T09:15:10;17.27;;;2.83;;
13014;SDS011;6573;57.696;11.950;2023-01-16T09:17:40;12.83;;;2.50;;
13014;SDS011;6573;57.696;11.950;2023-01-16T09:20:10;23.93;;;2.57;;
13014;SDS011;6573;57.696;11.950;2023-01-16T09:22:39;16.57;;;2.97;;
13014;SDS011;6573;57.696;11.950;2023-01-16T09:25:15;18.53;;;3.00;;
13014;SDS011;6573;57.696;11.950;2023-01-16T09:27:45;13.73;;;2.77;;
13014;SDS011;6573;57.696;11.950;2023-01-16T09:30:17;21.47;;;2.80;;
13014;SDS011;6573;57.696;11.950;2023-01-16T09:32:47;17.90;;;3.07;;
13014;SDS011;6573;57.696;11.950;2023-01-16T09:35:16;16.53;;;2.57;;
13014;SDS011;6573;57.696;11.950;2023-01-16T09:37:44;11.67;;;2.30;;
13014;SDS011;6573;57.696;11.950;2023-01-16T09:40:15;17.13;;;3.00;;
13014;SDS011;6573;57.696;11.950;2023-01-16T09:42:54;14.87;;;2.63;;
13014;SDS011;6573;57.696;11.950;2023-01-16T09:45:48;12.03;;;2.00;;
13014;SDS011;6573;57.696;11.950;2023-01-16T09:48:25;19.63;;;3.07;;
13014;SDS011;6573;57.696;11.950;2023-01-16T09:50:57;12.67;;;2.40;;
13014;SDS011;6573;57.696;11.950;2023-01-16T09:53:32;10.90;;;2.40;;
13014;SDS011;6573;57.696;11.950;2023-01-16T09:56:24;12.43;;;2.37;;
13014;SDS011;6573;57.696;11.950;2023-01-16T09:59:20;13.90;;;2.13;;
13014;SDS011;6573;57.696;11.950;2023-01-16T10:01:56;19.40;;;2.87;;
13014;SDS011;6573;57.696;11.950;2023-01-16T10:04:33;17.27;;;3.07;;
13014;SDS011;6573;57.696;11.950;2023-01-16T10:07:06;19.07;;;3.00;;
13014;SDS011;6573;57.696;11.950;2023-01-16T10:09:47;16.60;;;2.97;;
13014;SDS011;6573;57.696;11.950;2023-01-16T10:12:23;26.63;;;4.03;;
13014;SDS011;6573;57.696;11.950;2023-01-16T10:15:04;25.40;;;3.00;;
13014;SDS011;6573;57.696;11.950;2023-01-16T10:17:44;17.57;;;2.90;;
13014;SDS011;6573;57.696;11.950;2023-01-16T10:20:29;17.10;;;3.30;;
13014;SDS011;6573;57.696;11.950;2023-01-16T10:23:16;21.07;;;3.40;;
13014;SDS011;6573;57.696;11.950;2023-01-16T10:25:56;15.50;;;2.97;;
13014;SDS011;6573;57.696;11.950;2023-01-16T10:28:35;19.73;;;5.73;;
13014;SDS011;6573;57.696;11.950;2023-01-16T10:31:15;22.07;;;4.10;;
13014;SDS011;6573;57.696;11.950;2023-01-16T10:33:50;20.27;;;3.70;;
13014;SDS011;6573;57.696;11.950;2023-01-16T10:36:25;20.23;;;3.03;;
13014;SDS011;6573;57.696;11.950;2023-01-16T10:38:58;17.80;;;3.53;;
13014;SDS011;6573;57.696;11.950;2023-01-16T10:41:28;18.80;;;3.37;;
13014;SDS011;6573;57.696;11.950;2023-01-16T10:44:24;20.53;;;3.50;;
13014;SDS011;6573;57.696;11.950;2023-01-16T10:47:15;17.73;;;2.87;;
13014;SDS011;6573;57.696;11.950;2023-01-16T10:50:02;21.30;;;2.90;;
13014;SDS011;6573;57.696;11.950;2023-01-16T10:52:34;24.83;;;4.10;;
13014;SDS011;6573;57.696;11.950;2023-01-16T10:55:03;16.43;;;3.50;;
13014;SDS011;6573;57.696;11.950;2023-01-16T10:57:33;17.03;;;3.30;;
13014;SDS011;6573;57.696;11.950;2023-01-16T11:00:03;17.27;;;3.63;;
13014;SDS011;6573;57.696;11.950;2023-01-16T11:02:34;17.70;;;3.17;;
13014;SDS011;6573;57.696;11.950;2023-01-16T11:05:21;29.50;;;3.20;;
13014;SDS011;6573;57.696;11.950;2023-01-16T11:07:53;20.33;;;3.20;;
13014;SDS011;6573;57.696;11.950;2023-01-16T11:10:23;21.13;;;3.40;;
13014;SDS011;6573;57.696;11.950;2023-01-16T11:12:51;19.80;;;3.70;;
13014;SDS011;6573;57.696;11.950;2023-01-16T11:15:37;18.20;;;3.10;;
13014;SDS011;6573;57.696;11.950;2023-01-16T11:18:27;23.00;;;3.63;;
13014;SDS011;6573;57.696;11.950;2023-01-16T11:20:58;23.03;;;3.93;;
13014;SDS011;6573;57.696;11.950;2023-01-16T11:23:38;18.33;;;3.70;;
13014;SDS011;6573;57.696;11.950;2023-01-16T11:26:08;19.33;;;3.83;;
13014;SDS011;6573;57.696;11.950;2023-01-16T11:28:38;26.03;;;3.80;;
13014;SDS011;6573;57.696;11.950;2023-01-16T11:31:13;19.10;;;3.37;;
13014;SDS011;6573;57.696;11.950;2023-01-16T11:33:47;16.67;;;2.90;;
13014;SDS011;6573;57.696;11.950;2023-01-16T11:36:21;21.80;;;3.23;;
13014;SDS011;6573;57.696;11.950;2023-01-16T11:38:53;29.83;;;3.40;;
13014;SDS011;6573;57.696;11.950;2023-01-16T11:41:23;19.60;;;3.73;;
13014;SDS011;6573;57.696;11.950;2023-01-16T11:44:16;17.90;;;3.00;;
13014;SDS011;6573;57.696;11.950;2023-01-16T11:47:05;19.17;;;3.20;;
13014;SDS011;6573;57.696;11.950;2023-01-16T11:49:40;18.77;;;2.83;;
13014;SDS011;6573;57.696;11.950;2023-01-16T11:52:12;27.07;;;3.27;;
13014;SDS011;6573;57.696;11.950;2023-01-16T11:54:55;17.53;;;3.30;;
13014;SDS011;6573;57.696;11.950;2023-01-16T11:57:31;24.87;;;3.40;;
13014;SDS011;6573;57.696;11.950;2023-01-16T12:00:20;24.63;;;3.37;;
13014;SDS011;6573;57.696;11.950;2023-01-16T12:03:23;19.43;;;3.30;;
13014;SDS011;6573;57.696;11.950;2023-01-16T12:06:15;18.10;;;3.10;;
13014;SDS011;6573;57.696;11.950;2023-01-16T12:08:57;18.27;;;2.97;;
13014;SDS011;6573;57.696;11.950;2023-01-16T12:11:39;19.30;;;3.20;;
13014;SDS011;6573;57.696;11.950;2023-01-16T12:14:21;15.97;;;2.70;;
13014;SDS011;6573;57.696;11.950;2023-01-16T12:17:00;19.20;;;3.10;;
13014;SDS011;6573;57.696;11.950;2023-01-16T12:19:47;17.90;;;3.07;;
13014;SDS011;6573;57.696;11.950;2023-01-16T12:22:31;20.00;;;3.20;;
13014;SDS011;6573;57.696;11.950;2023-01-16T12:25:23;22.57;;;3.40;;
13014;SDS011;6573;57.696;11.950;2023-01-16T12:28:00;17.00;;;3.83;;
13014;SDS011;6573;57.696;11.950;2023-01-16T12:30:39;17.80;;;2.77;;
13014;SDS011;6573;57.696;11.950;2023-01-16T12:33:31;17.40;;;2.70;;
13014;SDS011;6573;57.696;11.950;2023-01-16T12:36:06;14.37;;;2.63;;
13014;SDS011;6573;57.696;11.950;2023-01-16T12:38:53;20.17;;;3.43;;
13014;SDS011;6573;57.696;11.950;2023-01-16T12:41:30;34.77;;;13.30;;
13014;SDS011;6573;57.696;11.950;2023-01-16T12:44:26;13.27;;;2.17;;
13014;SDS011;6573;57.696;11.950;2023-01-16T12:47:20;11.90;;;2.43;;
13014;SDS011;6573;57.696;11.950;2023-01-16T12:50:02;19.87;;;2.50;;
13014;SDS011;6573;57.696;11.950;2023-01-16T12:52:43;12.83;;;1.93;;
13014;SDS011;6573;57.696;11.950;2023-01-16T12:55:22;20.60;;;2.40;;
13014;SDS011;6573;57.696;11.950;2023-01-16T12:58:13;17.40;;;2.03;;
13014;SDS011;6573;57.696;11.950;2023-01-16T13:00:47;11.20;;;1.80;;
13014;SDS011;6573;57.696;11.950;2023-01-16T13:03:25;10.83;;;2.20;;
13014;SDS011;6573;57.696;11.950;2023-01-16T13:05:56;8.00;;;1.77;;
13014;SDS011;6573;57.696;11.950;2023-01-16T13:08:27;8.77;;;2.00;;
13014;SDS011;6573;57.696;11.950;2023-01-16T13:10:59;10.80;;;1.77;;
13014;SDS011;6573;57.696;11.950;2023-01-16T13:13:52;8.53;;;2.00;;
13014;SDS011;6573;57.696;11.950;2023-01-16T13:16:26;8.33;;;2.20;;
13014;SDS011;6573;57.696;11.950;2023-01-16T13:19:00;6.03;;;1.90;;
13014;SDS011;6573;57.696;11.950;2023-01-16T13:21:32;12.93;;;5.17;;
13014;SDS011;6573;57.696;11.950;2023-01-16T13:24:04;5.20;;;1.80;;
13014;SDS011;6573;57.696;11.950;2023-01-16T13:26:40;3.50;;;1.47;;
13014;SDS011;6573;57.696;11.950;2023-01-16T13:29:13;9.40;;;1.80;;
13014;SDS011;6573;57.696;11.950;2023-01-16T13:31:51;7.90;;;1.70;;
13014;SDS011;6573;57.696;11.950;2023-01-16T13:34:50;6.90;;;1.97;;
13014;SDS011;6573;57.696;11.950;2023-01-16T13:37:39;7.67;;;1.70;;
13014;SDS011;6573;57.696;11.950;2023-01-16T13:43:16;7.50;;;1.90;;
13014;SDS011;6573;57.696;11.950;2023-01-16T13:46:04;9.57;;;1.43;;
13014;SDS011;6573;57.696;11.950;2023-01-16T13:48:37;5.80;;;1.20;;
13014;SDS011;6573;57.696;11.950;2023-01-16T13:51:08;6.20;;;1.23;;
13014;SDS011;6573;57.696;11.950;2023-01-16T13:53:44;9.23;;;1.60;;
13014;SDS011;6573;57.696;11.950;2023-01-16T13:56:18;7.97;;;1.40;;
13014;SDS011;6573;57.696;11.950;2023-01-16T13:58:52;10.23;;;1.80;;
13014;SDS011;6573;57.696;11.950;2023-01-16T14:01:29;8.30;;;1.50;;
13014;SDS011;6573;57.696;11.950;2023-01-16T14:04:24;5.80;;;1.40;;
13014;SDS011;6573;57.696;11.950;2023-01-16T14:06:57;7.07;;;1.70;;
13014;SDS011;6573;57.696;11.950;2023-01-16T14:13:00;9.40;;;1.70;;
13014;SDS011;6573;57.696;11.950;2023-01-16T14:15:49;12.07;;;1.87;;
13014;SDS011;6573;57.696;11.950;2023-01-16T14:18:37;9.10;;;1.67;;
13014;SDS011;6573;57.696;11.950;2023-01-16T14:21:15;6.23;;;1.30;;
13014;SDS011;6573;57.696;11.950;2023-01-16T14:23:48;9.40;;;1.73;;
13014;SDS011;6573;57.696;11.950;2023-01-16T14:26:35;7.10;;;1.60;;
13014;SDS011;6573;57.696;11.950;2023-01-16T14:29:14;6.10;;;1.70;;
13014;SDS011;6573;57.696;11.950;2023-01-16T14:31:50;9.70;;;1.90;;
13014;SDS011;6573;57.696;11.950;2023-01-16T14:34:22;11.43;;;2.13;;
13014;SDS011;6573;57.696;11.950;2023-01-16T14:36:58;6.50;;;1.67;;
13014;SDS011;6573;57.696;11.950;2023-01-16T14:39:31;7.13;;;1.50;;
13014;SDS011;6573;57.696;11.950;2023-01-16T14:42:03;14.93;;;1.97;;
13014;SDS011;6573;57.696;11.950;2023-01-16T14:45:09;10.57;;;2.37;;
13014;SDS011;6573;57.696;11.950;2023-01-16T14:48:31;6.53;;;2.00;;
13014;SDS011;6573;57.696;11.950;2023-01-16T14:51:24;9.33;;;2.30;;
13014;SDS011;6573;57.696;11.950;2023-01-16T14:54:22;8.00;;;2.00;;
13014;SDS011;6573;57.696;11.950;2023-01-16T14:57:15;7.43;;;2.00;;
13014;SDS011;6573;57.696;11.950;2023-01-16T14:59:48;8.83;;;1.80;;
13014;SDS011;6573;57.696;11.950;2023-01-16T15:02:26;8.67;;;2.50;;
13014;SDS011;6573;57.696;11.950;2023-01-16T15:05:04;9.00;;;2.23;;
13014;SDS011;6573;57.696;11.950;2023-01-16T15:07:36;9.37;;;2.10;;
13014;SDS011;6573;57.696;11.950;2023-01-16T15:10:11;12.20;;;2.40;;
13014;SDS011;6573;57.696;11.950;2023-01-16T15:12:44;13.40;;;2.50;;
13014;SDS011;6573;57.696;11.950;2023-01-16T15:15:19;13.50;;;3.00;;
13014;SDS011;6573;57.696;11.950;2023-01-16T15:17:49;17.27;;;2.63;;
13014;SDS011;6573;57.696;11.950;2023-01-16T15:20:37;13.60;;;2.53;;
13014;SDS011;6573;57.696;11.950;2023-01-16T15:23:24;12.83;;;2.77;;
13014;SDS011;6573;57.696;11.950;2023-01-16T15:26:06;12.03;;;2.67;;
13014;SDS011;6573;57.696;11.950;2023-01-16T15:28:55;13.27;;;2.90;;
13014;SDS011;6573;57.696;11.950;2023-01-16T15:31:36;8.77;;;2.73;;
13014;SDS011;6573;57.696;11.950;2023-01-16T15:34:15;7.23;;;2.57;;